Search for airport 
image banner adimage banner adimage banner ad
image banner ad

KRTS - Reno/Stead

Located in Reno, United States

ICAO - RTS, IATA -

Data provided by Airmate  

General information

Coordinates: N39°40'5" W119°52'35"
Elevation is 5050 feet MSL.
Magnetic variation is 16° East
View others Airports in Nevada

Operational data

Special qualification required
Current time UTC:
Current local time:
Weather
METAR: KRTS 131015Z AUTO 36004KT 10SM CLR 11/02 A3004 RMK AO2
View NOTAMs / SUP AIP / TFR affecting this airport [VIEW]
Communications frequencies: [VIEW]

Runways:

RWY identifierQFULength (ft)Width (ft)SurfaceLDA (ft)
0896°7608150ASPH6956
14153°9000150ASPH
26276°7608150ASPH7294
32333°9000150ASPH7800

Airport contact information

Address: Reno United States

Other aviation service providers

Flight schools

Brill Aerosports

Brill Aerosports
tnbrill@gmail.com+1(775)329-3366

Ace Aviation And Flight School

Ace Aviation And Flight School

Vast Aviation

Vast Aviation
earl@vastaviation.com+1(775)530-6446

Satellite view of KRTS